Time,TemperatureF,DewpointF,PressureIn,WindDirection,WindDirectionDegrees,WindSpeedMPH,WindSpeedGustMPH,Humidity,HourlyPrecipIn,Conditions,Clouds,dailyrainin,SolarRadiationWatts/m^2,SoftwareType,DateUTC
2013-03-27 00:02:00,40.0,35.0,-100.00,NNW,338,3.0,5.0,82,0.00,,,0.00,0.000000,,2013-03-27 07:02:00,
2013-03-27 00:12:00,40.0,35.0,-100.00,NNW,338,3.0,5.0,82,0.00,,,0.00,0.000000,,2013-03-27 07:12:00,
2013-03-27 00:21:00,40.0,35.0,-100.00,NNW,338,3.0,5.0,82,0.00,,,0.00,0.000000,,2013-03-27 07:21:00,
2013-03-27 00:43:00,39.0,35.0,-100.00,WNW,287,1.0,3.0,84,0.00,,,0.00,0.000000,,2013-03-27 07:43:00,
2013-03-27 00:53:00,39.0,35.0,-100.00,WNW,287,1.0,3.0,84,0.00,,,0.00,0.000000,,2013-03-27 07:53:00,
2013-03-27 01:02:00,39.0,35.0,-100.00,WNW,287,1.0,3.0,84,0.00,,,0.00,0.000000,,2013-03-27 08:02:00,
2013-03-27 01:12:00,39.0,35.0,-100.00,WNW,287,1.0,3.0,84,0.00,,,0.00,0.000000,,2013-03-27 08:12:00,
2013-03-27 01:21:00,39.0,35.0,-100.00,WNW,287,1.0,3.0,84,0.00,,,0.00,0.000000,,2013-03-27 08:21:00,
2013-03-27 01:43:00,39.0,35.0,-100.00,NW,320,1.0,4.0,84,0.00,,,0.00,0.000000,,2013-03-27 08:43:00,
2013-03-27 01:52:00,39.0,35.0,-100.00,NW,320,1.0,4.0,84,0.00,,,0.00,0.000000,,2013-03-27 08:52:00,
2013-03-27 02:01:00,39.0,35.0,-100.00,NW,320,1.0,4.0,84,0.00,,,0.00,0.000000,,2013-03-27 09:01:00,
2013-03-27 02:11:00,39.0,35.0,-100.00,NW,320,1.0,4.0,84,0.00,,,0.00,0.000000,,2013-03-27 09:11:00,
2013-03-27 02:21:00,39.0,35.0,-100.00,NW,320,1.0,4.0,84,0.00,,,0.00,0.000000,,2013-03-27 09:21:00,
2013-03-27 02:42:00,40.0,34.0,-100.00,SSW,207,2.0,5.0,79,0.00,,,-99.99,0.000000,,2013-03-27 09:42:00,
2013-03-27 02:52:00,40.0,34.0,-100.00,SSW,207,2.0,5.0,79,0.00,,,-99.99,0.000000,,2013-03-27 09:52:00,
2013-03-27 03:02:00,40.0,34.0,-100.00,SSW,207,2.0,5.0,79,0.00,,,-99.99,0.000000,,2013-03-27 10:02:00,
2013-03-27 03:12:00,40.0,34.0,-100.00,SSW,207,2.0,5.0,79,0.00,,,-99.99,0.000000,,2013-03-27 10:12:00,
2013-03-27 03:22:00,40.0,34.0,-100.00,SSW,207,2.0,5.0,79,0.00,,,-99.99,0.000000,,2013-03-27 10:22:00,
2013-03-27 03:42:00,39.0,33.0,-100.00,NE,38,2.0,3.0,79,0.00,,,0.00,0.000000,,2013-03-27 10:42:00,
2013-03-27 03:53:00,39.0,33.0,-100.00,NE,38,2.0,3.0,79,0.00,,,0.00,0.000000,,2013-03-27 10:53:00,
2013-03-27 04:02:00,39.0,33.0,-100.00,NE,38,2.0,3.0,79,0.00,,,0.00,0.000000,,2013-03-27 11:02:00,
2013-03-27 04:11:00,39.0,33.0,-100.00,NE,38,2.0,3.0,79,0.00,,,0.00,0.000000,,2013-03-27 11:11:00,
2013-03-27 04:22:00,39.0,33.0,-100.00,NE,38,2.0,3.0,79,0.00,,,0.00,0.000000,,2013-03-27 11:22:00,
2013-03-27 04:42:00,38.0,32.0,-100.00,North,6,2.0,3.0,79,0.00,,,0.00,0.000000,,2013-03-27 11:42:00,
2013-03-27 04:52:00,38.0,32.0,-100.00,North,6,2.0,3.0,79,0.00,,,0.00,0.000000,,2013-03-27 11:52:00,
2013-03-27 05:02:00,38.0,32.0,-100.00,North,6,2.0,3.0,79,0.00,,,0.00,0.000000,,2013-03-27 12:02:00,
2013-03-27 05:12:00,38.0,32.0,-100.00,North,6,2.0,3.0,79,0.00,,,0.00,0.000000,,2013-03-27 12:12:00,
2013-03-27 05:22:00,38.0,32.0,-100.00,North,6,2.0,3.0,79,0.00,,,0.00,0.000000,,2013-03-27 12:22:00,
2013-03-27 05:43:00,38.0,33.0,-100.00,NNW,347,2.0,4.0,81,0.00,,,0.00,0.000000,,2013-03-27 12:43:00,
2013-03-27 05:52:00,38.0,33.0,-100.00,NNW,347,2.0,4.0,81,0.00,,,0.00,0.000000,,2013-03-27 12:52:00,
2013-03-27 06:02:00,38.0,33.0,-100.00,NNW,347,2.0,4.0,81,0.00,,,0.00,0.000000,,2013-03-27 13:02:00,
2013-03-27 06:12:00,38.0,33.0,-100.00,NNW,347,2.0,4.0,81,0.00,,,0.00,0.000000,,2013-03-27 13:12:00,
2013-03-27 06:21:00,38.0,33.0,-100.00,NNW,347,2.0,4.0,81,0.00,,,0.00,0.000000,,2013-03-27 13:21:00,
2013-03-27 06:42:00,39.0,33.0,-100.00,WSW,246,1.0,4.0,78,0.00,,,0.00,0.000000,,2013-03-27 13:42:00,
2013-03-27 06:53:00,39.0,33.0,-100.00,WSW,246,1.0,4.0,78,0.00,,,0.00,0.000000,,2013-03-27 13:53:00,
2013-03-27 07:02:00,39.0,33.0,-100.00,WSW,246,1.0,4.0,78,0.00,,,0.00,0.000000,,2013-03-27 14:02:00,
2013-03-27 07:21:00,39.0,33.0,-100.00,WSW,246,1.0,4.0,78,0.00,,,0.00,0.000000,,2013-03-27 14:21:00,
2013-03-27 07:42:00,40.0,33.0,-100.00,WSW,251,1.0,3.0,77,0.00,,,0.00,9.000000,,2013-03-27 14:42:00,
2013-03-27 07:52:00,40.0,33.0,-100.00,WSW,251,1.0,3.0,77,0.00,,,0.00,9.000000,,2013-03-27 14:52:00,
2013-03-27 08:02:00,40.0,33.0,-100.00,WSW,251,1.0,3.0,77,0.00,,,0.00,9.000000,,2013-03-27 15:02:00,
2013-03-27 08:11:00,40.0,33.0,-100.00,WSW,251,1.0,3.0,77,0.00,,,0.00,9.000000,,2013-03-27 15:11:00,
2013-03-27 08:22:00,40.0,33.0,-100.00,WSW,251,1.0,3.0,77,0.00,,,0.00,9.000000,,2013-03-27 15:22:00,
2013-03-27 08:43:00,43.0,35.0,-100.00,SSE,158,1.0,2.0,73,0.00,,,0.00,94.000000,,2013-03-27 15:43:00,
2013-03-27 08:52:00,43.0,35.0,-100.00,SSE,158,1.0,2.0,73,0.00,,,0.00,94.000000,,2013-03-27 15:52:00,
2013-03-27 09:02:00,43.0,35.0,-100.00,SSE,158,1.0,2.0,73,0.00,,,0.00,94.000000,,2013-03-27 16:02:00,
2013-03-27 09:12:00,43.0,35.0,-100.00,SSE,158,1.0,2.0,73,0.00,,,0.00,94.000000,,2013-03-27 16:12:00,
2013-03-27 09:22:00,43.0,35.0,-100.00,SSE,158,1.0,2.0,73,0.00,,,0.00,94.000000,,2013-03-27 16:22:00,
2013-03-27 11:02:00,52.0,36.0,-100.00,South,184,4.0,9.0,55,-99.99,,,0.00,559.000000,,2013-03-27 18:02:00,
2013-03-27 11:12:00,52.0,36.0,-100.00,South,184,4.0,9.0,55,-99.99,,,0.00,559.000000,,2013-03-27 18:12:00,
2013-03-27 11:22:00,52.0,36.0,-100.00,South,184,4.0,9.0,55,-99.99,,,0.00,559.000000,,2013-03-27 18:22:00,
2013-03-27 11:42:00,53.0,35.0,-100.00,SSW,205,5.0,12.0,51,0.00,,,0.00,709.000000,,2013-03-27 18:42:00,
2013-03-27 11:53:00,53.0,35.0,-100.00,SSW,205,5.0,12.0,51,0.00,,,0.00,709.000000,,2013-03-27 18:53:00,
2013-03-27 12:12:00,53.0,35.0,-100.00,SSW,205,5.0,12.0,51,0.00,,,0.00,709.000000,,2013-03-27 19:12:00,
2013-03-27 12:21:00,53.0,35.0,-100.00,SSW,205,5.0,12.0,51,0.00,,,0.00,709.000000,,2013-03-27 19:21:00,
2013-03-27 12:52:00,55.0,35.0,-100.00,SSW,195,3.0,15.0,47,0.00,,,-99.99,630.000000,,2013-03-27 19:52:00,
2013-03-27 13:02:00,55.0,35.0,-100.00,SSW,195,3.0,15.0,47,0.00,,,-99.99,630.000000,,2013-03-27 20:02:00,
2013-03-27 13:12:00,55.0,35.0,-100.00,SSW,195,3.0,15.0,47,0.00,,,-99.99,630.000000,,2013-03-27 20:12:00,
2013-03-27 13:22:00,55.0,35.0,-100.00,SSW,195,3.0,15.0,47,0.00,,,-99.99,630.000000,,2013-03-27 20:22:00,
2013-03-27 13:43:00,56.0,36.0,-100.00,SW,222,6.0,15.0,47,0.00,,,0.00,633.000000,,2013-03-27 20:43:00,
2013-03-27 13:52:00,56.0,36.0,-100.00,SW,222,6.0,15.0,47,0.00,,,0.00,633.000000,,2013-03-27 20:52:00,
2013-03-27 14:02:00,56.0,36.0,-100.00,SW,222,6.0,15.0,47,0.00,,,0.00,633.000000,,2013-03-27 21:02:00,
2013-03-27 14:12:00,56.0,36.0,-100.00,SW,222,6.0,15.0,47,0.00,,,0.00,633.000000,,2013-03-27 21:12:00,
2013-03-27 14:21:00,56.0,36.0,-100.00,SW,222,6.0,15.0,47,0.00,,,0.00,633.000000,,2013-03-27 21:21:00,
2013-03-27 14:43:00,54.0,37.0,-100.00,SW,230,8.0,19.0,53,0.00,,,0.00,768.000000,,2013-03-27 21:43:00,
2013-03-27 14:52:00,54.0,37.0,-100.00,SW,230,8.0,19.0,53,0.00,,,0.00,768.000000,,2013-03-27 21:52:00,
2013-03-27 15:02:00,54.0,37.0,-100.00,SW,230,8.0,19.0,53,0.00,,,0.00,768.000000,,2013-03-27 22:02:00,
2013-03-27 15:12:00,54.0,37.0,-100.00,SW,230,8.0,19.0,53,0.00,,,0.00,768.000000,,2013-03-27 22:12:00,
2013-03-27 15:22:00,54.0,37.0,-100.00,SW,230,8.0,19.0,53,0.00,,,0.00,768.000000,,2013-03-27 22:22:00,
2013-03-27 15:42:00,53.0,38.0,-100.00,WSW,241,10.0,19.0,57,0.00,,,0.00,962.000000,,2013-03-27 22:42:00,
2013-03-27 15:52:00,53.0,38.0,-100.00,WSW,241,10.0,19.0,57,0.00,,,0.00,962.000000,,2013-03-27 22:52:00,
2013-03-27 16:02:00,53.0,38.0,-100.00,WSW,241,10.0,19.0,57,0.00,,,0.00,962.000000,,2013-03-27 23:02:00,
2013-03-27 16:11:00,53.0,38.0,-100.00,WSW,241,10.0,19.0,57,0.00,,,0.00,962.000000,,2013-03-27 23:11:00,
2013-03-27 16:21:00,53.0,38.0,-100.00,WSW,241,10.0,19.0,57,0.00,,,0.00,962.000000,,2013-03-27 23:21:00,
2013-03-27 16:42:00,52.0,40.0,-100.00,WSW,250,11.0,20.0,64,0.00,,,0.00,487.000000,,2013-03-27 23:42:00,
2013-03-27 16:52:00,52.0,40.0,-100.00,WSW,250,11.0,20.0,64,0.00,,,0.00,487.000000,,2013-03-27 23:52:00,
2013-03-27 17:02:00,52.0,40.0,-100.00,WSW,250,11.0,20.0,64,0.00,,,0.00,487.000000,,2013-03-28 00:02:00,
2013-03-27 17:12:00,52.0,40.0,-100.00,WSW,250,11.0,20.0,64,0.00,,,0.00,487.000000,,2013-03-28 00:12:00,
2013-03-27 17:21:00,52.0,40.0,-100.00,WSW,250,11.0,20.0,64,0.00,,,0.00,487.000000,,2013-03-28 00:21:00,